sensor_id;sensor_type;location;lat;lon;timestamp;P1;durP1;ratioP1;P2;durP2;ratioP2
58412;SDS011;44209;52.952;6.790;2023-08-07T00:00:39;9.68;;;6.68;;
58412;SDS011;44209;52.952;6.790;2023-08-07T00:03:05;9.85;;;7.20;;
58412;SDS011;44209;52.952;6.790;2023-08-07T00:05:31;10.23;;;7.07;;
58412;SDS011;44209;52.952;6.790;2023-08-07T00:07:57;8.73;;;7.15;;
58412;SDS011;44209;52.952;6.790;2023-08-07T00:10:22;11.90;;;7.25;;
58412;SDS011;44209;52.952;6.790;2023-08-07T00:12:49;8.02;;;6.20;;
58412;SDS011;44209;52.952;6.790;2023-08-07T00:15:15;9.52;;;6.57;;
58412;SDS011;44209;52.952;6.790;2023-08-07T00:17:41;8.15;;;6.35;;
58412;SDS011;44209;52.952;6.790;2023-08-07T00:20:07;9.30;;;6.55;;
58412;SDS011;44209;52.952;6.790;2023-08-07T00:22:33;8.38;;;6.75;;
58412;SDS011;44209;52.952;6.790;2023-08-07T00:24:58;8.57;;;6.20;;
58412;SDS011;44209;52.952;6.790;2023-08-07T00:27:24;6.55;;;5.55;;
58412;SDS011;44209;52.952;6.790;2023-08-07T00:29:50;6.28;;;5.25;;
58412;SDS011;44209;52.952;6.790;2023-08-07T00:32:16;6.35;;;5.65;;
58412;SDS011;44209;52.952;6.790;2023-08-07T00:34:42;7.50;;;5.47;;
58412;SDS011;44209;52.952;6.790;2023-08-07T00:37:07;8.55;;;5.57;;
58412;SDS011;44209;52.952;6.790;2023-08-07T00:39:33;8.02;;;5.93;;
58412;SDS011;44209;52.952;6.790;2023-08-07T00:41:59;7.85;;;5.43;;
58412;SDS011;44209;52.952;6.790;2023-08-07T00:44:24;7.82;;;5.25;;
58412;SDS011;44209;52.952;6.790;2023-08-07T00:46:50;7.30;;;5.68;;
58412;SDS011;44209;52.952;6.790;2023-08-07T00:49:16;7.60;;;5.40;;
58412;SDS011;44209;52.952;6.790;2023-08-07T00:51:44;6.20;;;5.03;;
58412;SDS011;44209;52.952;6.790;2023-08-07T00:54:10;7.50;;;4.95;;
58412;SDS011;44209;52.952;6.790;2023-08-07T00:56:39;6.60;;;5.38;;
58412;SDS011;44209;52.952;6.790;2023-08-07T00:59:05;8.05;;;5.63;;
58412;SDS011;44209;52.952;6.790;2023-08-07T01:01:31;6.35;;;5.43;;
58412;SDS011;44209;52.952;6.790;2023-08-07T01:03:57;6.55;;;5.22;;
58412;SDS011;44209;52.952;6.790;2023-08-07T01:06:23;6.97;;;5.53;;
58412;SDS011;44209;52.952;6.790;2023-08-07T01:08:48;6.97;;;5.70;;
58412;SDS011;44209;52.952;6.790;2023-08-07T01:19:01;7.70;;;5.75;;
58412;SDS011;44209;52.952;6.790;2023-08-07T01:21:28;7.90;;;5.78;;
58412;SDS011;44209;52.952;6.790;2023-08-07T01:23:54;6.97;;;5.55;;
58412;SDS011;44209;52.952;6.790;2023-08-07T01:26:21;8.93;;;5.97;;
58412;SDS011;44209;52.952;6.790;2023-08-07T01:28:52;8.10;;;5.57;;
58412;SDS011;44209;52.952;6.790;2023-08-07T01:31:20;8.98;;;6.40;;
58412;SDS011;44209;52.952;6.790;2023-08-07T01:34:07;8.73;;;5.80;;
58412;SDS011;44209;52.952;6.790;2023-08-07T01:36:35;9.55;;;5.70;;
58412;SDS011;44209;52.952;6.790;2023-08-07T01:39:04;8.52;;;6.05;;
58412;SDS011;44209;52.952;6.790;2023-08-07T01:41:32;9.75;;;6.05;;
58412;SDS011;44209;52.952;6.790;2023-08-07T01:43:58;6.68;;;5.38;;
58412;SDS011;44209;52.952;6.790;2023-08-07T01:46:24;8.18;;;6.03;;
58412;SDS011;44209;52.952;6.790;2023-08-07T01:48:50;8.48;;;5.50;;
58412;SDS011;44209;52.952;6.790;2023-08-07T01:51:16;7.28;;;5.40;;
58412;SDS011;44209;52.952;6.790;2023-08-07T01:53:41;6.03;;;5.13;;
58412;SDS011;44209;52.952;6.790;2023-08-07T01:56:07;7.72;;;4.97;;
58412;SDS011;44209;52.952;6.790;2023-08-07T01:58:33;10.93;;;5.10;;
58412;SDS011;44209;52.952;6.790;2023-08-07T02:00:58;7.80;;;4.93;;
58412;SDS011;44209;52.952;6.790;2023-08-07T02:03:24;8.07;;;4.72;;
58412;SDS011;44209;52.952;6.790;2023-08-07T02:05:49;9.85;;;4.97;;
58412;SDS011;44209;52.952;6.790;2023-08-07T02:08:15;11.23;;;4.70;;
58412;SDS011;44209;52.952;6.790;2023-08-07T02:10:41;8.13;;;4.45;;
58412;SDS011;44209;52.952;6.790;2023-08-07T02:13:06;8.30;;;4.53;;
58412;SDS011;44209;52.952;6.790;2023-08-07T02:15:32;5.68;;;4.20;;
58412;SDS011;44209;52.952;6.790;2023-08-07T02:17:58;7.97;;;4.22;;
58412;SDS011;44209;52.952;6.790;2023-08-07T02:20:23;9.85;;;3.95;;
58412;SDS011;44209;52.952;6.790;2023-08-07T02:22:49;8.02;;;4.00;;
58412;SDS011;44209;52.952;6.790;2023-08-07T02:25:15;7.32;;;3.78;;
58412;SDS011;44209;52.952;6.790;2023-08-07T02:27:41;6.97;;;3.53;;
58412;SDS011;44209;52.952;6.790;2023-08-07T02:30:06;10.15;;;3.80;;
58412;SDS011;44209;52.952;6.790;2023-08-07T02:32:32;9.70;;;3.72;;
58412;SDS011;44209;52.952;6.790;2023-08-07T02:34:58;9.23;;;3.40;;
58412;SDS011;44209;52.952;6.790;2023-08-07T02:37:24;8.75;;;3.35;;
58412;SDS011;44209;52.952;6.790;2023-08-07T02:39:50;7.03;;;3.80;;
58412;SDS011;44209;52.952;6.790;2023-08-07T02:42:15;9.75;;;3.75;;
58412;SDS011;44209;52.952;6.790;2023-08-07T02:44:41;10.88;;;3.40;;
58412;SDS011;44209;52.952;6.790;2023-08-07T02:47:07;13.18;;;3.47;;
58412;SDS011;44209;52.952;6.790;2023-08-07T02:49:33;9.15;;;3.20;;
58412;SDS011;44209;52.952;6.790;2023-08-07T02:51:58;6.05;;;3.33;;
58412;SDS011;44209;52.952;6.790;2023-08-07T02:54:24;8.20;;;3.22;;
58412;SDS011;44209;52.952;6.790;2023-08-07T02:56:50;7.85;;;3.00;;
58412;SDS011;44209;52.952;6.790;2023-08-07T02:59:15;8.68;;;3.10;;
58412;SDS011;44209;52.952;6.790;2023-08-07T03:01:43;11.07;;;3.70;;
58412;SDS011;44209;52.952;6.790;2023-08-07T03:04:09;7.75;;;3.10;;
58412;SDS011;44209;52.952;6.790;2023-08-07T03:06:35;9.65;;;3.50;;
58412;SDS011;44209;52.952;6.790;2023-08-07T03:09:00;8.18;;;3.40;;
58412;SDS011;44209;52.952;6.790;2023-08-07T03:11:26;10.75;;;4.00;;
58412;SDS011;44209;52.952;6.790;2023-08-07T03:13:52;9.63;;;3.38;;
58412;SDS011;44209;52.952;6.790;2023-08-07T03:16:17;10.05;;;3.50;;
58412;SDS011;44209;52.952;6.790;2023-08-07T03:18:43;10.43;;;3.63;;
58412;SDS011;44209;52.952;6.790;2023-08-07T03:21:09;10.95;;;3.22;;
58412;SDS011;44209;52.952;6.790;2023-08-07T03:23:35;11.48;;;3.47;;
58412;SDS011;44209;52.952;6.790;2023-08-07T03:26:07;11.75;;;3.40;;
58412;SDS011;44209;52.952;6.790;2023-08-07T03:28:34;14.00;;;3.38;;
58412;SDS011;44209;52.952;6.790;2023-08-07T03:31:01;9.52;;;3.75;;
58412;SDS011;44209;52.952;6.790;2023-08-07T03:33:27;8.73;;;3.58;;
58412;SDS011;44209;52.952;6.790;2023-08-07T03:35:53;12.00;;;3.28;;
58412;SDS011;44209;52.952;6.790;2023-08-07T03:38:19;12.80;;;4.07;;
58412;SDS011;44209;52.952;6.790;2023-08-07T03:40:45;13.65;;;3.58;;
58412;SDS011;44209;52.952;6.790;2023-08-07T03:43:10;8.65;;;3.35;;
58412;SDS011;44209;52.952;6.790;2023-08-07T03:45:36;8.88;;;3.53;;
58412;SDS011;44209;52.952;6.790;2023-08-07T03:48:02;14.20;;;4.07;;
58412;SDS011;44209;52.952;6.790;2023-08-07T03:50:28;11.40;;;3.92;;
58412;SDS011;44209;52.952;6.790;2023-08-07T03:52:55;11.57;;;3.50;;
58412;SDS011;44209;52.952;6.790;2023-08-07T03:55:21;11.90;;;3.75;;
58412;SDS011;44209;52.952;6.790;2023-08-07T03:57:47;10.77;;;3.50;;
58412;SDS011;44209;52.952;6.790;2023-08-07T04:00:13;7.63;;;3.65;;
58412;SDS011;44209;52.952;6.790;2023-08-07T04:02:39;19.13;;;3.67;;
58412;SDS011;44209;52.952;6.790;2023-08-07T04:05:05;10.35;;;3.90;;
58412;SDS011;44209;52.952;6.790;2023-08-07T04:07:31;13.60;;;3.47;;
58412;SDS011;44209;52.952;6.790;2023-08-07T04:09:57;13.70;;;3.50;;
58412;SDS011;44209;52.952;6.790;2023-08-07T04:12:22;11.00;;;3.60;;
58412;SDS011;44209;52.952;6.790;2023-08-07T04:14:48;6.90;;;3.17;;
58412;SDS011;44209;52.952;6.790;2023-08-07T04:17:14;11.90;;;3.83;;
58412;SDS011;44209;52.952;6.790;2023-08-07T04:19:39;10.38;;;3.53;;
58412;SDS011;44209;52.952;6.790;2023-08-07T04:22:05;10.48;;;3.35;;
58412;SDS011;44209;52.952;6.790;2023-08-07T04:24:31;9.88;;;3.47;;
58412;SDS011;44209;52.952;6.790;2023-08-07T04:26:56;8.45;;;3.55;;
58412;SDS011;44209;52.952;6.790;2023-08-07T04:29:23;13.20;;;4.20;;
58412;SDS011;44209;52.952;6.790;2023-08-07T04:31:49;9.60;;;3.85;;
58412;SDS011;44209;52.952;6.790;2023-08-07T04:34:15;11.60;;;3.38;;
58412;SDS011;44209;52.952;6.790;2023-08-07T04:36:40;9.65;;;3.20;;
58412;SDS011;44209;52.952;6.790;2023-08-07T04:39:06;8.30;;;3.10;;
58412;SDS011;44209;52.952;6.790;2023-08-07T04:41:32;10.52;;;3.35;;
58412;SDS011;44209;52.952;6.790;2023-08-07T04:43:58;8.73;;;3.47;;
58412;SDS011;44209;52.952;6.790;2023-08-07T04:46:23;7.82;;;2.88;;
58412;SDS011;44209;52.952;6.790;2023-08-07T04:48:49;10.88;;;3.38;;
58412;SDS011;44209;52.952;6.790;2023-08-07T04:51:15;9.80;;;3.67;;
58412;SDS011;44209;52.952;6.790;2023-08-07T04:53:41;10.77;;;3.42;;
58412;SDS011;44209;52.952;6.790;2023-08-07T04:56:06;11.63;;;4.20;;
58412;SDS011;44209;52.952;6.790;2023-08-07T04:58:32;8.50;;;3.20;;
58412;SDS011;44209;52.952;6.790;2023-08-07T05:00:58;6.45;;;3.33;;
58412;SDS011;44209;52.952;6.790;2023-08-07T05:03:25;11.73;;;3.88;;
58412;SDS011;44209;52.952;6.790;2023-08-07T05:05:59;10.00;;;3.58;;
58412;SDS011;44209;52.952;6.790;2023-08-07T05:08:25;8.82;;;3.95;;
58412;SDS011;44209;52.952;6.790;2023-08-07T05:10:51;9.95;;;3.75;;
58412;SDS011;44209;52.952;6.790;2023-08-07T05:13:17;9.18;;;3.42;;
58412;SDS011;44209;52.952;6.790;2023-08-07T05:15:42;8.98;;;3.78;;
58412;SDS011;44209;52.952;6.790;2023-08-07T05:18:08;8.95;;;4.03;;
58412;SDS011;44209;52.952;6.790;2023-08-07T05:20:34;8.60;;;3.60;;
58412;SDS011;44209;52.952;6.790;2023-08-07T05:23:00;14.65;;;4.95;;
58412;SDS011;44209;52.952;6.790;2023-08-07T05:25:25;11.88;;;4.25;;
58412;SDS011;44209;52.952;6.790;2023-08-07T05:27:51;16.40;;;4.80;;
58412;SDS011;44209;52.952;6.790;2023-08-07T05:30:17;9.18;;;4.30;;
58412;SDS011;44209;52.952;6.790;2023-08-07T05:32:43;11.18;;;4.10;;
58412;SDS011;44209;52.952;6.790;2023-08-07T05:35:08;9.88;;;3.65;;
58412;SDS011;44209;52.952;6.790;2023-08-07T05:37:34;7.82;;;4.03;;
58412;SDS011;44209;52.952;6.790;2023-08-07T05:40:01;9.63;;;4.45;;
58412;SDS011;44209;52.952;6.790;2023-08-07T05:42:27;9.80;;;3.40;;
58412;SDS011;44209;52.952;6.790;2023-08-07T05:44:53;10.13;;;3.88;;
58412;SDS011;44209;52.952;6.790;2023-08-07T05:47:18;7.97;;;3.58;;
58412;SDS011;44209;52.952;6.790;2023-08-07T05:49:44;13.95;;;4.55;;
58412;SDS011;44209;52.952;6.790;2023-08-07T05:52:10;12.32;;;5.00;;
58412;SDS011;44209;52.952;6.790;2023-08-07T05:54:36;11.32;;;4.00;;
58412;SDS011;44209;52.952;6.790;2023-08-07T05:57:02;9.02;;;3.92;;
58412;SDS011;44209;52.952;6.790;2023-08-07T05:59:28;12.60;;;4.40;;
58412;SDS011;44209;52.952;6.790;2023-08-07T06:01:54;12.15;;;4.30;;
58412;SDS011;44209;52.952;6.790;2023-08-07T06:04:20;13.23;;;4.78;;
58412;SDS011;44209;52.952;6.790;2023-08-07T06:06:47;10.05;;;4.47;;
58412;SDS011;44209;52.952;6.790;2023-08-07T06:09:12;10.00;;;4.65;;
58412;SDS011;44209;52.952;6.790;2023-08-07T06:11:40;11.88;;;4.93;;
58412;SDS011;44209;52.952;6.790;2023-08-07T06:14:06;10.68;;;4.63;;
58412;SDS011;44209;52.952;6.790;2023-08-07T06:16:32;10.90;;;4.43;;
58412;SDS011;44209;52.952;6.790;2023-08-07T06:18:58;11.20;;;4.50;;
58412;SDS011;44209;52.952;6.790;2023-08-07T06:21:24;14.93;;;4.70;;
58412;SDS011;44209;52.952;6.790;2023-08-07T06:23:49;17.27;;;4.75;;
58412;SDS011;44209;52.952;6.790;2023-08-07T06:26:15;14.43;;;5.30;;
58412;SDS011;44209;52.952;6.790;2023-08-07T06:28:41;16.42;;;4.45;;
58412;SDS011;44209;52.952;6.790;2023-08-07T06:31:08;13.57;;;4.70;;
58412;SDS011;44209;52.952;6.790;2023-08-07T06:33:35;12.18;;;4.40;;
58412;SDS011;44209;52.952;6.790;2023-08-07T06:36:04;12.10;;;4.45;;
58412;SDS011;44209;52.952;6.790;2023-08-07T06:38:31;14.77;;;4.65;;
58412;SDS011;44209;52.952;6.790;2023-08-07T06:40:57;11.98;;;4.00;;
58412;SDS011;44209;52.952;6.790;2023-08-07T06:43:23;13.32;;;4.47;;
58412;SDS011;44209;52.952;6.790;2023-08-07T06:45:49;10.23;;;4.13;;
58412;SDS011;44209;52.952;6.790;2023-08-07T06:48:15;12.27;;;3.90;;
58412;SDS011;44209;52.952;6.790;2023-08-07T06:50:41;11.32;;;4.40;;
58412;SDS011;44209;52.952;6.790;2023-08-07T06:53:07;11.98;;;4.32;;
58412;SDS011;44209;52.952;6.790;2023-08-07T06:55:32;14.45;;;4.82;;
58412;SDS011;44209;52.952;6.790;2023-08-07T06:57:59;9.70;;;3.90;;
58412;SDS011;44209;52.952;6.790;2023-08-07T07:00:24;16.40;;;4.75;;
58412;SDS011;44209;52.952;6.790;2023-08-07T07:02:50;11.27;;;4.00;;
58412;SDS011;44209;52.952;6.790;2023-08-07T07:05:16;11.82;;;4.45;;
58412;SDS011;44209;52.952;6.790;2023-08-07T07:07:42;15.20;;;4.57;;
58412;SDS011;44209;52.952;6.790;2023-08-07T07:10:08;12.82;;;4.18;;
58412;SDS011;44209;52.952;6.790;2023-08-07T07:12:33;12.93;;;4.30;;
58412;SDS011;44209;52.952;6.790;2023-08-07T07:14:59;18.02;;;4.35;;
58412;SDS011;44209;52.952;6.790;2023-08-07T07:17:25;10.70;;;3.65;;
58412;SDS011;44209;52.952;6.790;2023-08-07T07:19:51;10.45;;;4.00;;
58412;SDS011;44209;52.952;6.790;2023-08-07T07:22:16;11.20;;;4.22;;
58412;SDS011;44209;52.952;6.790;2023-08-07T07:24:42;13.90;;;4.30;;
58412;SDS011;44209;52.952;6.790;2023-08-07T07:27:08;11.10;;;4.18;;
58412;SDS011;44209;52.952;6.790;2023-08-07T07:29:33;9.80;;;3.78;;
58412;SDS011;44209;52.952;6.790;2023-08-07T07:31:59;10.70;;;3.88;;
58412;SDS011;44209;52.952;6.790;2023-08-07T07:34:25;12.35;;;4.18;;
58412;SDS011;44209;52.952;6.790;2023-08-07T07:36:51;12.80;;;4.03;;
58412;SDS011;44209;52.952;6.790;2023-08-07T07:39:18;15.43;;;4.10;;
58412;SDS011;44209;52.952;6.790;2023-08-07T07:41:44;10.55;;;3.60;;
58412;SDS011;44209;52.952;6.790;2023-08-07T07:44:10;8.63;;;3.40;;
58412;SDS011;44209;52.952;6.790;2023-08-07T07:46:36;11.57;;;3.15;;
58412;SDS011;44209;52.952;6.790;2023-08-07T07:49:02;7.75;;;2.58;;
58412;SDS011;44209;52.952;6.790;2023-08-07T07:51:30;7.05;;;2.40;;
58412;SDS011;44209;52.952;6.790;2023-08-07T07:53:57;6.38;;;2.60;;
58412;SDS011;44209;52.952;6.790;2023-08-07T07:56:23;6.72;;;2.30;;
58412;SDS011;44209;52.952;6.790;2023-08-07T07:58:49;6.40;;;2.60;;
58412;SDS011;44209;52.952;6.790;2023-08-07T08:01:14;7.03;;;2.95;;
58412;SDS011;44209;52.952;6.790;2023-08-07T08:03:40;6.85;;;2.40;;
58412;SDS011;44209;52.952;6.790;2023-08-07T08:06:06;10.95;;;2.80;;
58412;SDS011;44209;52.952;6.790;2023-08-07T08:08:32;8.63;;;2.88;;
58412;SDS011;44209;52.952;6.790;2023-08-07T08:10:57;5.80;;;3.00;;
58412;SDS011;44209;52.952;6.790;2023-08-07T08:13:23;7.18;;;3.08;;
58412;SDS011;44209;52.952;6.790;2023-08-07T08:15:50;8.55;;;3.30;;
58412;SDS011;44209;52.952;6.790;2023-08-07T08:18:16;5.93;;;3.15;;
58412;SDS011;44209;52.952;6.790;2023-08-07T08:20:42;6.10;;;3.00;;
58412;SDS011;44209;52.952;6.790;2023-08-07T08:23:09;7.93;;;3.53;;
58412;SDS011;44209;52.952;6.790;2023-08-07T08:25:35;8.80;;;3.10;;
58412;SDS011;44209;52.952;6.790;2023-08-07T08:28:00;7.70;;;3.00;;
58412;SDS011;44209;52.952;6.790;2023-08-07T08:30:28;10.65;;;2.97;;
58412;SDS011;44209;52.952;6.790;2023-08-07T08:32:54;8.90;;;2.75;;
58412;SDS011;44209;52.952;6.790;2023-08-07T08:35:20;6.55;;;2.63;;
58412;SDS011;44209;52.952;6.790;2023-08-07T08:37:46;7.93;;;2.63;;
58412;SDS011;44209;52.952;6.790;2023-08-07T08:40:12;6.80;;;3.00;;
58412;SDS011;44209;52.952;6.790;2023-08-07T08:42:43;6.88;;;3.35;;
58412;SDS011;44209;52.952;6.790;2023-08-07T08:45:12;6.60;;;3.20;;
58412;SDS011;44209;52.952;6.790;2023-08-07T08:47:39;10.02;;;3.72;;
58412;SDS011;44209;52.952;6.790;2023-08-07T08:50:09;11.45;;;3.75;;
58412;SDS011;44209;52.952;6.790;2023-08-07T08:52:37;9.90;;;3.47;;
58412;SDS011;44209;52.952;6.790;2023-08-07T08:55:06;8.27;;;3.75;;
58412;SDS011;44209;52.952;6.790;2023-08-07T08:57:33;10.32;;;3.53;;
58412;SDS011;44209;52.952;6.790;2023-08-07T09:00:00;7.97;;;3.42;;
58412;SDS011;44209;52.952;6.790;2023-08-07T09:02:32;7.45;;;3.40;;
58412;SDS011;44209;52.952;6.790;2023-08-07T09:04:58;8.80;;;3.65;;
58412;SDS011;44209;52.952;6.790;2023-08-07T09:07:24;10.98;;;3.58;;
58412;SDS011;44209;52.952;6.790;2023-08-07T09:09:51;11.55;;;3.47;;
58412;SDS011;44209;52.952;6.790;2023-08-07T09:12:23;8.18;;;3.63;;
58412;SDS011;44209;52.952;6.790;2023-08-07T09:14:58;7.30;;;3.30;;
58412;SDS011;44209;52.952;6.790;2023-08-07T09:17:29;8.15;;;3.22;;
58412;SDS011;44209;52.952;6.790;2023-08-07T09:19:58;13.55;;;3.63;;
58412;SDS011;44209;52.952;6.790;2023-08-07T09:22:24;9.13;;;3.90;;
58412;SDS011;44209;52.952;6.790;2023-08-07T09:24:50;11.38;;;3.15;;
58412;SDS011;44209;52.952;6.790;2023-08-07T09:27:16;8.30;;;3.40;;
58412;SDS011;44209;52.952;6.790;2023-08-07T09:29:46;9.70;;;3.15;;
58412;SDS011;44209;52.952;6.790;2023-08-07T09:32:12;7.05;;;2.92;;
58412;SDS011;44209;52.952;6.790;2023-08-07T09:34:41;7.45;;;2.72;;
58412;SDS011;44209;52.952;6.790;2023-08-07T09:37:10;4.85;;;2.47;;
58412;SDS011;44209;52.952;6.790;2023-08-07T09:39:36;8.52;;;2.90;;
58412;SDS011;44209;52.952;6.790;2023-08-07T09:42:03;5.20;;;2.60;;
58412;SDS011;44209;52.952;6.790;2023-08-07T09:44:36;6.65;;;2.90;;
58412;SDS011;44209;52.952;6.790;2023-08-07T09:47:11;7.45;;;2.63;;
58412;SDS011;44209;52.952;6.790;2023-08-07T09:49:40;5.28;;;2.80;;
58412;SDS011;44209;52.952;6.790;2023-08-07T09:52:09;7.22;;;2.50;;
58412;SDS011;44209;52.952;6.790;2023-08-07T09:54:36;6.15;;;2.50;;
58412;SDS011;44209;52.952;6.790;2023-08-07T09:57:03;7.00;;;2.58;;
58412;SDS011;44209;52.952;6.790;2023-08-07T09:59:30;6.88;;;2.20;;
58412;SDS011;44209;52.952;6.790;2023-08-07T10:01:57;6.43;;;2.38;;
58412;SDS011;44209;52.952;6.790;2023-08-07T10:04:25;6.15;;;2.50;;
58412;SDS011;44209;52.952;6.790;2023-08-07T10:06:52;6.90;;;2.28;;
58412;SDS011;44209;52.952;6.790;2023-08-07T10:09:18;9.23;;;2.88;;
58412;SDS011;44209;52.952;6.790;2023-08-07T10:11:45;7.40;;;2.95;;
58412;SDS011;44209;52.952;6.790;2023-08-07T10:14:14;8.80;;;3.10;;
58412;SDS011;44209;52.952;6.790;2023-08-07T10:16:40;8.13;;;3.33;;
58412;SDS011;44209;52.952;6.790;2023-08-07T10:19:09;10.43;;;3.10;;
58412;SDS011;44209;52.952;6.790;2023-08-07T10:21:37;7.60;;;2.85;;
58412;SDS011;44209;52.952;6.790;2023-08-07T10:24:04;8.35;;;3.03;;
58412;SDS011;44209;52.952;6.790;2023-08-07T10:26:32;10.00;;;3.10;;
58412;SDS011;44209;52.952;6.790;2023-08-07T10:29:05;5.38;;;2.72;;
58412;SDS011;44209;52.952;6.790;2023-08-07T10:31:34;6.90;;;2.70;;
58412;SDS011;44209;52.952;6.790;2023-08-07T10:34:01;8.10;;;2.95;;
58412;SDS011;44209;52.952;6.790;2023-08-07T10:36:33;6.20;;;2.67;;
58412;SDS011;44209;52.952;6.790;2023-08-07T10:39:07;6.35;;;2.65;;
58412;SDS011;44209;52.952;6.790;2023-08-07T10:41:38;9.50;;;3.20;;
58412;SDS011;44209;52.952;6.790;2023-08-07T10:44:19;6.75;;;2.97;;
58412;SDS011;44209;52.952;6.790;2023-08-07T10:46:57;6.22;;;2.80;;
58412;SDS011;44209;52.952;6.790;2023-08-07T10:49:33;6.05;;;2.78;;
58412;SDS011;44209;52.952;6.790;2023-08-07T10:54:37;7.20;;;2.53;;
58412;SDS011;44209;52.952;6.790;2023-08-07T10:57:23;5.60;;;2.65;;
58412;SDS011;44209;52.952;6.790;2023-08-07T11:02:26;9.63;;;2.90;;
58412;SDS011;44209;52.952;6.790;2023-08-07T11:04:54;6.10;;;2.90;;
58412;SDS011;44209;52.952;6.790;2023-08-07T11:07:27;6.78;;;2.88;;
58412;SDS011;44209;52.952;6.790;2023-08-07T11:09:54;5.70;;;2.95;;
58412;SDS011;44209;52.952;6.790;2023-08-07T11:12:24;6.35;;;2.67;;
58412;SDS011;44209;52.952;6.790;2023-08-07T11:14:53;6.05;;;2.65;;
58412;SDS011;44209;52.952;6.790;2023-08-07T11:17:27;5.57;;;2.70;;
58412;SDS011;44209;52.952;6.790;2023-08-07T11:19:54;5.05;;;2.38;;
58412;SDS011;44209;52.952;6.790;2023-08-07T11:22:20;6.10;;;2.33;;
58412;SDS011;44209;52.952;6.790;2023-08-07T11:24:47;6.80;;;2.58;;
58412;SDS011;44209;52.952;6.790;2023-08-07T11:27:12;6.57;;;2.78;;
58412;SDS011;44209;52.952;6.790;2023-08-07T11:29:38;4.80;;;2.33;;
58412;SDS011;44209;52.952;6.790;2023-08-07T11:32:04;3.33;;;2.00;;
58412;SDS011;44209;52.952;6.790;2023-08-07T11:34:31;8.02;;;2.15;;
58412;SDS011;44209;52.952;6.790;2023-08-07T11:36:59;7.20;;;2.10;;
58412;SDS011;44209;52.952;6.790;2023-08-07T11:39:28;5.82;;;2.15;;
58412;SDS011;44209;52.952;6.790;2023-08-07T11:41:54;6.22;;;2.22;;
58412;SDS011;44209;52.952;6.790;2023-08-07T11:44:20;6.32;;;2.25;;
58412;SDS011;44209;52.952;6.790;2023-08-07T11:46:47;6.63;;;2.20;;
58412;SDS011;44209;52.952;6.790;2023-08-07T11:49:13;6.82;;;2.22;;
58412;SDS011;44209;52.952;6.790;2023-08-07T11:51:39;5.10;;;2.15;;
58412;SDS011;44209;52.952;6.790;2023-08-07T11:54:05;5.38;;;1.90;;
58412;SDS011;44209;52.952;6.790;2023-08-07T11:56:32;4.90;;;2.33;;
58412;SDS011;44209;52.952;6.790;2023-08-07T11:58:57;5.75;;;2.10;;
58412;SDS011;44209;52.952;6.790;2023-08-07T12:01:24;4.70;;;1.83;;
58412;SDS011;44209;52.952;6.790;2023-08-07T12:03:55;5.20;;;2.13;;
58412;SDS011;44209;52.952;6.790;2023-08-07T12:06:23;6.23;;;2.43;;
58412;SDS011;44209;52.952;6.790;2023-08-07T12:08:50;4.65;;;2.10;;
58412;SDS011;44209;52.952;6.790;2023-08-07T12:11:20;6.60;;;2.22;;
58412;SDS011;44209;52.952;6.790;2023-08-07T12:13:49;3.78;;;1.80;;
58412;SDS011;44209;52.952;6.790;2023-08-07T12:16:15;6.30;;;2.13;;
58412;SDS011;44209;52.952;6.790;2023-08-07T12:21:13;6.35;;;2.00;;
58412;SDS011;44209;52.952;6.790;2023-08-07T12:23:39;3.58;;;1.92;;
58412;SDS011;44209;52.952;6.790;2023-08-07T12:26:05;4.65;;;2.10;;
58412;SDS011;44209;52.952;6.790;2023-08-07T12:28:32;5.55;;;2.30;;
58412;SDS011;44209;52.952;6.790;2023-08-07T12:31:01;5.47;;;2.50;;
58412;SDS011;44209;52.952;6.790;2023-08-07T12:33:31;7.32;;;2.50;;
58412;SDS011;44209;52.952;6.790;2023-08-07T12:35:57;4.57;;;2.13;;
58412;SDS011;44209;52.952;6.790;2023-08-07T12:38:23;5.90;;;2.28;;
58412;SDS011;44209;52.952;6.790;2023-08-07T12:40:49;7.32;;;2.60;;
58412;SDS011;44209;52.952;6.790;2023-08-07T12:43:15;5.53;;;2.30;;
58412;SDS011;44209;52.952;6.790;2023-08-07T12:45:41;5.68;;;2.88;;
58412;SDS011;44209;52.952;6.790;2023-08-07T12:48:07;5.07;;;2.45;;
58412;SDS011;44209;52.952;6.790;2023-08-07T12:50:33;5.53;;;2.42;;
58412;SDS011;44209;52.952;6.790;2023-08-07T12:52:59;4.15;;;2.50;;
58412;SDS011;44209;52.952;6.790;2023-08-07T12:55:25;4.55;;;2.17;;
58412;SDS011;44209;52.952;6.790;2023-08-07T12:57:54;3.83;;;2.30;;
58412;SDS011;44209;52.952;6.790;2023-08-07T13:00:20;4.05;;;2.15;;
58412;SDS011;44209;52.952;6.790;2023-08-07T13:02:47;4.65;;;2.45;;
58412;SDS011;44209;52.952;6.790;2023-08-07T13:05:14;4.68;;;2.10;;
58412;SDS011;44209;52.952;6.790;2023-08-07T13:07:42;4.22;;;2.08;;
58412;SDS011;44209;52.952;6.790;2023-08-07T13:10:09;4.53;;;2.22;;
58412;SDS011;44209;52.952;6.790;2023-08-07T13:12:37;5.95;;;2.40;;
58412;SDS011;44209;52.952;6.790;2023-08-07T13:15:06;6.20;;;2.40;;
58412;SDS011;44209;52.952;6.790;2023-08-07T13:17:34;5.78;;;2.47;;
58412;SDS011;44209;52.952;6.790;2023-08-07T13:20:01;5.22;;;2.40;;
58412;SDS011;44209;52.952;6.790;2023-08-07T13:22:30;4.75;;;2.20;;
58412;SDS011;44209;52.952;6.790;2023-08-07T13:24:56;4.70;;;2.28;;
58412;SDS011;44209;52.952;6.790;2023-08-07T13:27:21;4.38;;;2.58;;
58412;SDS011;44209;52.952;6.790;2023-08-07T13:29:47;7.25;;;2.25;;
58412;SDS011;44209;52.952;6.790;2023-08-07T13:32:13;5.70;;;2.10;;
58412;SDS011;44209;52.952;6.790;2023-08-07T13:34:39;4.10;;;2.13;;
58412;SDS011;44209;52.952;6.790;2023-08-07T13:37:05;5.43;;;2.15;;
58412;SDS011;44209;52.952;6.790;2023-08-07T13:39:32;4.20;;;2.10;;
58412;SDS011;44209;52.952;6.790;2023-08-07T13:41:58;5.28;;;2.47;;
58412;SDS011;44209;52.952;6.790;2023-08-07T13:44:25;5.82;;;2.47;;
58412;SDS011;44209;52.952;6.790;2023-08-07T13:46:51;5.40;;;2.65;;
58412;SDS011;44209;52.952;6.790;2023-08-07T13:49:17;3.05;;;2.03;;
58412;SDS011;44209;52.952;6.790;2023-08-07T13:51:43;5.07;;;2.05;;
58412;SDS011;44209;52.952;6.790;2023-08-07T13:54:09;6.13;;;2.30;;
58412;SDS011;44209;52.952;6.790;2023-08-07T13:56:35;6.18;;;2.60;;
58412;SDS011;44209;52.952;6.790;2023-08-07T13:59:01;4.15;;;2.20;;
58412;SDS011;44209;52.952;6.790;2023-08-07T14:01:27;5.30;;;2.60;;
58412;SDS011;44209;52.952;6.790;2023-08-07T14:03:56;4.20;;;2.28;;
58412;SDS011;44209;52.952;6.790;2023-08-07T14:06:21;5.60;;;2.78;;
58412;SDS011;44209;52.952;6.790;2023-08-07T14:08:47;7.07;;;2.88;;
58412;SDS011;44209;52.952;6.790;2023-08-07T14:11:13;6.10;;;2.38;;
58412;SDS011;44209;52.952;6.790;2023-08-07T14:13:40;5.60;;;2.50;;
58412;SDS011;44209;52.952;6.790;2023-08-07T14:16:06;5.95;;;2.70;;
58412;SDS011;44209;52.952;6.790;2023-08-07T14:18:32;3.65;;;2.30;;
58412;SDS011;44209;52.952;6.790;2023-08-07T14:20:59;5.30;;;2.60;;
58412;SDS011;44209;52.952;6.790;2023-08-07T14:23:24;5.43;;;2.20;;
58412;SDS011;44209;52.952;6.790;2023-08-07T14:25:50;5.80;;;2.50;;
58412;SDS011;44209;52.952;6.790;2023-08-07T14:28:18;5.47;;;2.30;;
58412;SDS011;44209;52.952;6.790;2023-08-07T14:30:44;6.97;;;2.80;;
58412;SDS011;44209;52.952;6.790;2023-08-07T14:33:10;6.15;;;2.30;;
58412;SDS011;44209;52.952;6.790;2023-08-07T14:35:36;5.45;;;2.47;;
58412;SDS011;44209;52.952;6.790;2023-08-07T14:38:01;6.93;;;2.65;;
58412;SDS011;44209;52.952;6.790;2023-08-07T14:40:28;4.50;;;2.20;;
58412;SDS011;44209;52.952;6.790;2023-08-07T14:42:54;6.18;;;2.55;;
58412;SDS011;44209;52.952;6.790;2023-08-07T14:45:20;4.70;;;2.20;;
58412;SDS011;44209;52.952;6.790;2023-08-07T14:47:47;4.55;;;2.40;;
58412;SDS011;44209;52.952;6.790;2023-08-07T14:50:13;7.90;;;2.60;;
58412;SDS011;44209;52.952;6.790;2023-08-07T14:52:41;6.53;;;2.50;;
58412;SDS011;44209;52.952;6.790;2023-08-07T14:55:09;6.97;;;2.60;;